Terminal Aerodrome Forecast
Issued by NWS

Home | Current Version | Previous Version | Text Only | Print | Product List | Glossary On
Versions: 1 2 3 4 5 6 7 8 9 10 11 12
352
FTUS41 KPBZ 210533
TAFFKL
TAF
KFKL 210533Z 2106/2206 24008KT P6SM OVC012
     FM210700 23005KT 5SM BR OVC008
     FM211100 22005KT 5SM -DZ OVC008=

USA.gov is the U.S. government's official web portal to all federal, state and local government web resources and services.